Data for 11/08/2006

Time Sea-Level Adjusted Pressure Absolute Pressure Temperature Relative Humidity Dew Point   
(mb) (inHg) (mb) (inHg) (C) (F) (%) (C) (F)
00:05 1006 29.71 835 24.66 12.2 53.9 70 6.8 44.2
00:10 1006 29.71 835 24.66 12.1 53.8 70 6.9 44.4
00:15 1006 29.71 835 24.66 12 53.6 70 6.7 44.1
00:20 1006 29.71 835 24.66 12.1 53.7 69 6.5 43.8
00:25 1006 29.71 835 24.66 12.3 54.2 66 6.3 43.4
00:30 1006 29.71 835 24.66 12.6 54.6 66 6.5 43.7
00:35 1006 29.71 835 24.66 12.4 54.4 68 6.7 44
00:40 1006 29.71 835 24.66 12.3 54.1 68 6.6 43.9
00:45 1006 29.71 835 24.66 12.1 53.7 69 6.6 44
00:50 1006 29.71 835 24.66 12 53.6 69 6.6 43.9
00:55 1006 29.71 835 24.66 11.8 53.3 70 6.6 43.8
01:00 1006 29.71 835 24.66 11.7 53 70 6.4 43.5
01:05 1006 29.71 835 24.66 11.7 53.1 69 6.4 43.5
01:10 1006 29.71 835 24.66 11.8 53.2 69 6.4 43.5
01:15 1005 29.68 835 24.66 11.7 53.1 70 6.4 43.5
01:20 1005 29.68 835 24.66 12 53.5 65 5.5 42
01:25 1005 29.68 835 24.66 12.4 54.3 62 5.4 41.8
01:30 1005 29.68 835 24.66 12.5 54.6 58 4.5 40.1
01:35 1005 29.68 834 24.63 13.4 56 53 4.2 39.5
01:40 1005 29.68 834 24.63 13.8 56.8 52 4.1 39.3
01:45 1005 29.68 834 24.63 14.1 57.4 51 4.2 39.6
01:50 1005 29.68 834 24.63 14.1 57.4 51 4.2 39.5
01:55 1005 29.68 834 24.63 14.2 57.6 50 4.1 39.4
02:00 1005 29.68 834 24.63 14.4 58 49 4 39.1
02:05 1005 29.68 834 24.63 14.5 58.2 49 4.1 39.4
02:10 1005 29.68 834 24.63 14.4 57.9 50 4.3 39.8
02:15 1005 29.68 834 24.63 14.3 57.8 50 4.1 39.4
02:20 1005 29.68 834 24.63 14.4 57.8 50 4 39.2
02:25 1005 29.68 834 24.63 14.5 58 49 3.9 39.1
02:30 1005 29.68 835 24.66 14.5 58 48 3.6 38.6
02:35 1005 29.68 835 24.66 14.6 58.3 48 3.7 38.7
02:40 1005 29.68 835 24.66 14.7 58.5 47 3.6 38.5
02:45 1005 29.68 835 24.66 14.8 58.6 47 3.6 38.5
02:50 1005 29.68 835 24.66 14.9 58.9 46 3.6 38.5
02:55 1005 29.68 835 24.66 14.9 58.9 47 3.9 39
03:00 1005 29.68 835 24.66 14.8 58.7 47 3.8 38.9
03:05 1005 29.68 835 24.66 14.8 58.6 47 3.7 38.6
03:10 1005 29.68 834 24.63 14.8 58.7 47 3.6 38.5
03:15 1005 29.68 835 24.66 14.9 58.8 47 3.9 38.9
03:20 1005 29.68 834 24.63 14.7 58.5 48 3.9 39
03:25 1005 29.68 835 24.66 14.7 58.4 48 3.7 38.7
03:30 1005 29.68 834 24.63 14.7 58.4 48 3.9 39
03:35 1005 29.68 834 24.63 14.6 58.3 48 3.9 39
03:40 1005 29.68 834 24.63 14.5 58.2 49 4 39.1
03:45 1005 29.68 834 24.63 14.5 58.2 49 4 39.1
03:50 1005 29.68 834 24.63 14.5 58 50 4.1 39.4
03:55 1005 29.68 834 24.63 14.4 57.9 50 4.1 39.4
04:00 1005 29.68 834 24.63 14.3 57.8 50 4.1 39.4
04:05 1005 29.68 834 24.63 14.3 57.8 50 4.1 39.4
04:10 1005 29.68 834 24.63 14.3 57.7 51 4.3 39.7
04:15 1005 29.68 834 24.63 14.1 57.4 52 4.4 39.9
04:20 1005 29.68 834 24.63 13.9 57 55 5.1 41.3
04:25 1005 29.68 835 24.66 13.6 56.4 58 5.4 41.8
04:30 1005 29.68 835 24.66 12.7 54.8 66 6.5 43.7
04:35 1006 29.71 835 24.66 11.7 53 75 7.4 45.4
04:40 1006 29.71 835 24.66 10.5 50.8 81 7.3 45.2
04:45 1006 29.71 835 24.66 9.3 48.7 83 6.6 43.8
04:50 1007 29.74 836 24.69 8.4 47.1 84 5.9 42.6
04:55 1007 29.74 836 24.69 7.9 46.3 85 5.6 42.1
05:00 1007 29.74 837 24.72 7.6 45.7 87 5.5 42
05:05 1007 29.74 837 24.72 7.3 45.2 86 5.2 41.3
05:10 1008 29.77 837 24.72 7.2 44.9 87 5.2 41.4
05:15 1008 29.77 837 24.72 7.1 44.7 88 5.3 41.5
05:20 1008 29.77 837 24.72 7 44.6 88 5.2 41.3
05:25 1008 29.77 837 24.72 6.9 44.4 90 5.4 41.7
05:30 1008 29.77 837 24.72 6.9 44.4 89 5.3 41.5
05:35 1008 29.77 837 24.72 6.8 44.3 89 5.2 41.4
05:40 1008 29.77 837 24.72 6.8 44.2 91 5.4 41.7
05:45 1008 29.77 837 24.72 6.8 44.2 91 5.4 41.8
05:50 1008 29.77 838 24.75 6.9 44.5 91 5.5 41.9
05:55 1008 29.77 838 24.75 7 44.7 89 5.4 41.7
06:00 1009 29.8 838 24.75 6.7 44.1 91 5.3 41.5
06:05 1009 29.8 838 24.75 6.6 43.9 91 5.3 41.5
06:10 1008 29.77 838 24.75 7 44.6 88 5.1 41.3
06:15 1009 29.8 838 24.75 7 44.6 86 4.8 40.6
06:20 1009 29.8 838 24.75 7 44.5 86 4.8 40.6
06:25 1009 29.8 838 24.75 6.9 44.4 86 4.8 40.6
06:30 1009 29.8 838 24.75 6.8 44.2 85 4.4 39.9
06:35 1009 29.8 838 24.75 6.7 44 85 4.4 39.9
06:40 1009 29.8 838 24.75 6.6 43.8 86 4.4 39.9
06:45 1009 29.8 838 24.75 6.4 43.6 86 4.3 39.7
06:50 1009 29.8 838 24.75 5.9 42.6 88 4.2 39.5
06:55 1009 29.8 838 24.75 5.6 42 89 4 39.1
07:00 1009 29.8 838 24.75 5.4 41.8 89 3.8 38.8
07:05 1009 29.8 838 24.75 5.5 41.9 86 3.3 38
07:10 1009 29.8 838 24.75 5.6 42 84 3.1 37.5
07:15 1009 29.8 838 24.75 5.6 42 84 3.1 37.6
07:20 1009 29.8 838 24.75 5.6 42.1 82 2.8 37
07:25 1009 29.8 838 24.75 5.7 42.2 83 3 37.4
07:30 1009 29.8 838 24.75 5.5 41.8 86 3.3 37.9
07:35 1009 29.8 838 24.75 5.4 41.8 87 3.4 38.1
07:40 1009 29.8 839 24.78 5.3 41.5 87 3.3 37.9
07:45 1010 29.83 839 24.78 5.1 41.2 87 3.1 37.5
07:50 1010 29.83 839 24.78 5 41.1 86 2.9 37.2
07:55 1010 29.83 839 24.78 4.8 40.7 88 3 37.4
08:00 1010 29.83 839 24.78 4.9 40.8 77 1.1 34
08:05 1010 29.83 839 24.78 5.1 41.1 79 1.7 35.1
08:10 1010 29.83 839 24.78 5.1 41.2 80 1.9 35.4
08:15 1010 29.83 839 24.78 5.1 41.1 81 2.1 35.8
08:20 1010 29.83 839 24.78 4.8 40.7 82 2 35.7
08:25 1010 29.83 839 24.78 4.8 40.6 83 2.2 35.9
08:30 1010 29.83 839 24.78 4.7 40.4 84 2.3 36.1
08:35 1010 29.83 840 24.81 4.5 40.2 84 2.2 35.9
08:40 1011 29.85 840 24.81 4.7 40.5 81 1.8 35.2
08:45 1011 29.85 840 24.81 5.1 41.2 75 1 33.8
08:50 1011 29.85 840 24.81 5.2 41.3 79 1.9 35.4
08:55 1011 29.85 840 24.81 4.9 40.8 77 1.1 34.1
09:00 1011 29.85 840 24.81 4.8 40.6 75 0.8 33.4
09:05 1011 29.85 840 24.81 4.5 40.1 74 0.3 32.5
09:10 1011 29.85 840 24.81 4.2 39.6 77 0.5 33
09:15 1011 29.85 840 24.81 4.1 39.4 80 1 33.8
09:20 1011 29.85 840 24.81 4 39.3 79 0.7 33.3
09:25 1011 29.85 840 24.81 4.2 39.6 76 0.4 32.7
09:30 1011 29.85 840 24.81 4.3 39.8 77 0.7 33.3
09:35 1011 29.85 840 24.81 4.2 39.5 77 0.5 33
09:40 1011 29.85 840 24.81 4.1 39.4 78 0.6 33
09:45 1011 29.85 840 24.81 4 39.2 75 0.1 32.1
09:50 1011 29.85 840 24.81 3.9 39.1 76 0 32
09:55 1011 29.85 840 24.81 4 39.2 76 0.2 32.4
10:00 1011 29.85 840 24.81 3.9 39 79 0.5 33
10:05 1011 29.85 840 24.81 4 39.2 78 0.6 33
10:10 1011 29.85 840 24.81 4.1 39.5 77 0.5 32.9
10:15 1011 29.85 840 24.81 4.3 39.7 79 1 33.7
10:20 1011 29.85 840 24.81 4.3 39.8 77 0.7 33.2
10:25 1011 29.85 840 24.81 4.1 39.4 78 0.6 33.1
10:30 1011 29.85 840 24.81 4.2 39.6 83 1.7 35
10:35 1011 29.85 840 24.81 4.3 39.7 77 0.6 33.1
10:40 1011 29.85 840 24.81 4.5 40.1 74 0.3 32.5
10:45 1011 29.85 840 24.81 4.4 40 73 0.1 32.2
10:50 1011 29.85 840 24.81 4.5 40.1 75 0.5 32.9
10:55 1011 29.85 840 24.81 4.6 40.3 73 0.2 32.3
11:00 1011 29.85 840 24.81 5 40.9 71 0.2 32.4
11:05 1011 29.85 840 24.81 5.2 41.4 64 -0.9 30.4
11:10 1011 29.85 840 24.81 5.5 41.9 68 0 32.1
11:15 1011 29.85 840 24.81 5.9 42.7 65 -0.1 31.9
11:20 1011 29.85 840 24.81 6.2 43.1 61 -0.8 30.6
11:25 1011 29.85 840 24.81 6.2 43.1 63 -0.3 31.5
11:30 1011 29.85 840 24.81 6.5 43.6 58 -1.2 29.9
11:35 1011 29.85 840 24.81 6.6 43.8 58 -1 30.2
11:40 1011 29.85 840 24.81 6.7 44.1 62 0 32
11:45 1011 29.85 840 24.81 7.4 45.2 59 -0.1 31.9
11:50 1011 29.85 840 24.81 7.7 45.8 58 -0.1 31.8
11:55 1011 29.85 840 24.81 7.5 45.5 53 -1.5 29.3
12:00 1011 29.85 840 24.81 7.2 45 58 -0.5 31.1
12:05 1011 29.85 840 24.81 7 44.7 55 -1.4 29.5
12:10 1011 29.85 840 24.81 6.7 44 55 -1.6 29.1
12:15 1011 29.85 840 24.81 6.5 43.6 60 -0.7 30.8
12:20 1010 29.83 840 24.81 6.3 43.3 59 -1 30.2
12:25 1010 29.83 839 24.78 6.3 43.4 58 -1.4 29.5
12:30 1010 29.83 839 24.78 6.6 43.8 57 -1.4 29.6
12:35 1010 29.83 839 24.78 6.7 44.1 53 -2.1 28.2
12:40 1010 29.83 839 24.78 7.1 44.7 52 -2.1 28.1
12:45 1010 29.83 839 24.78 6.7 44 53 -2.2 28.1
12:50 1010 29.83 840 24.81 6.8 44.3 51 -2.5 27.6
12:55 1011 29.85 840 24.81 6.8 44.2 52 -2.3 27.8
13:00 1011 29.85 840 24.81 6.8 44.2 46 -3.9 25
13:05 1011 29.85 840 24.81 6.7 44.1 46 -4.1 24.6
13:10 1011 29.85 840 24.81 6.7 44 45 -4.4 24.1
13:15 1011 29.85 840 24.81 6.6 44 47 -3.8 25.1
13:20 1010 29.83 839 24.78 6.3 43.3 52 -2.8 26.9
13:25 1010 29.83 840 24.81 6.7 44.1 51 -2.7 27.2
13:30 1010 29.83 840 24.81 7.7 45.9 49 -2.2 28.1
13:35 1010 29.83 839 24.78 8.1 46.6 48 -2.3 27.9
13:40 1010 29.83 839 24.78 8.5 47.3 43 -3.2 26.2
13:45 1010 29.83 839 24.78 8.8 47.8 42 -3.5 25.6
13:50 1010 29.83 839 24.78 8.3 46.9 42 -3.9 25
13:55 1010 29.83 839 24.78 7.3 45.2 47 -3.1 26.4
14:00 1010 29.83 839 24.78 6.3 43.4 53 -2.5 27.5
14:05 1010 29.83 839 24.78 6.1 43.1 55 -2.2 28
14:10 1010 29.83 839 24.78 6 42.8 53 -2.7 27.1
14:15 1010 29.83 839 24.78 5.9 42.7 55 -2.5 27.5
14:20 1010 29.83 839 24.78 6 42.9 53 -2.8 26.9
14:25 1010 29.83 839 24.78 6.1 43 54 -2.4 27.7
14:30 1010 29.83 839 24.78 6.4 43.5 54 -2.2 28
14:35 1010 29.83 839 24.78 6.1 42.9 54 -2.6 27.4
14:40 1010 29.83 839 24.78 6.1 43 53 -2.8 27
14:45 1010 29.83 839 24.78 6.2 43.1 54 -2.3 27.8
14:50 1010 29.83 839 24.78 6.1 43 55 -2.3 27.8
14:55 1010 29.83 839 24.78 6.5 43.6 53 -2.5 27.5
15:00 1010 29.83 839 24.78 6.5 43.7 52 -2.5 27.5
15:05 1010 29.83 839 24.78 6.9 44.4 52 -2.4 27.7
15:10 1010 29.83 839 24.78 7 44.6 50 -2.6 27.3
15:15 1010 29.83 839 24.78 6.9 44.5 52 -2.3 27.9
15:20 1010 29.83 839 24.78 7.1 44.8 51 -2.5 27.6
15:25 1010 29.83 839 24.78 7.1 44.8 51 -2.3 27.9
15:30 1010 29.83 839 24.78 6.9 44.5 53 -2 28.3
15:35 1010 29.83 839 24.78 6.6 43.9 53 -2.3 27.9
15:40 1010 29.83 839 24.78 6.9 44.4 52 -2.2 28
15:45 1011 29.85 840 24.81 7 44.6 52 -2.1 28.2
15:50 1011 29.85 840 24.81 6.9 44.4 54 -1.8 28.7
15:55 1011 29.85 840 24.81 6.5 43.8 54 -2 28.4
16:00 1011 29.85 840 24.81 6.2 43.2 55 -2.2 28
16:05 1011 29.85 840 24.81 6.3 43.4 54 -2.2 28.1
16:10 1011 29.85 840 24.81 6.3 43.4 56 -1.9 28.6
16:15 1011 29.85 840 24.81 6.2 43.1 57 -1.7 28.9
16:20 1011 29.85 840 24.81 6.1 42.9 60 -1.1 30.1
16:25 1011 29.85 840 24.81 5.9 42.6 61 -1 30.2
16:30 1011 29.85 840 24.81 5.9 42.5 61 -1.1 30
16:35 1010 29.83 840 24.81 6 42.8 62 -0.7 30.7
16:40 1010 29.83 840 24.81 5.9 42.6 63 -0.6 31
16:45 1010 29.83 840 24.81 6.1 42.9 63 -0.4 31.3
16:50 1010 29.83 840 24.81 6.2 43.1 60 -1 30.2
16:55 1011 29.85 840 24.81 6.1 43 66 0.3 32.6
17:00 1011 29.85 840 24.81 5.7 42.2 68 0.3 32.6
17:05 1011 29.85 840 24.81 5.5 41.8 68 0.1 32.2
17:10 1011 29.85 840 24.81 5.3 41.5 71 0.4 32.8
17:15 1011 29.85 840 24.81 5.1 41.2 72 0.5 32.8
17:20 1011 29.85 840 24.81 5 41.1 73 0.6 33
17:25 1011 29.85 840 24.81 4.9 40.9 74 0.7 33.3
17:30 1011 29.85 840 24.81 5 40.9 75 0.9 33.7
17:35 1011 29.85 840 24.81 4.8 40.6 76 0.9 33.7
17:40 1011 29.85 840 24.81 4.7 40.4 77 1 33.8
17:45 1011 29.85 840 24.81 4.6 40.3 77 0.8 33.5
17:50 1011 29.85 840 24.81 4.6 40.3 77 0.9 33.6
17:55 1011 29.85 840 24.81 4.5 40.1 75 0.4 32.7
18:00 1011 29.85 840 24.81 4.5 40 74 0.2 32.4
18:05 1011 29.85 840 24.81 4.4 40 75 0.3 32.6
18:10 1011 29.85 840 24.81 4.4 39.9 74 0.2 32.3
18:15 1011 29.85 840 24.81 4.2 39.5 75 0.2 32.4
18:20 1011 29.85 840 24.81 3.9 39 77 0.2 32.3
18:25 1011 29.85 840 24.81 3.7 38.7 78 0.2 32.3
18:30 1011 29.85 840 24.81 3.8 38.8 78 0.2 32.4
18:35 1011 29.85 840 24.81 3.7 38.7 78 0.2 32.3
18:40 1011 29.85 840 24.81 3.9 39 76 0 32.1
18:45 1011 29.85 840 24.81 4 39.3 76 0.2 32.3
18:50 1011 29.85 840 24.81 4 39.2 77 0.3 32.5
18:55 1011 29.85 840 24.81 3.9 38.9 77 0.1 32.3
19:00 1011 29.85 840 24.81 3.7 38.7 77 0.1 32.1
19:05 1011 29.85 840 24.81 3.5 38.3 76 -0.3 31.4
19:10 1011 29.85 840 24.81 3.3 37.9 75 -0.8 30.6
19:15 1011 29.85 840 24.81 3.1 37.5 76 -0.7 30.7
19:20 1011 29.85 840 24.81 2.9 37.2 77 -0.7 30.7
19:25 1011 29.85 840 24.81 2.8 37.1 77 -0.9 30.4
19:30 1011 29.85 840 24.81 2.8 37 78 -0.8 30.6
19:35 1011 29.85 840 24.81 2.6 36.7 77 -1 30.3
19:40 1011 29.85 840 24.81 2.7 36.9 77 -0.9 30.3
19:45 1011 29.85 840 24.81 2.8 37.1 76 -1 30.1
19:50 1011 29.85 840 24.81 2.5 36.4 77 -1.2 29.9
19:55 1011 29.85 840 24.81 2.2 35.9 79 -1.2 29.9
20:00 1011 29.85 840 24.81 1.9 35.3 79 -1.4 29.6
20:05 1011 29.85 840 24.81 1.7 35.1 79 -1.5 29.4
20:10 1011 29.85 840 24.81 1.6 34.8 81 -1.3 29.6
20:15 1011 29.85 840 24.81 1.4 34.4 80 -1.7 29
20:20 1011 29.85 840 24.81 1.5 34.6 79 -1.8 28.8
20:25 1011 29.85 840 24.81 1.8 35.2 78 -1.7 29
20:30 1011 29.85 840 24.81 1.9 35.4 79 -1.5 29.4
20:35 1011 29.85 840 24.81 1.9 35.3 79 -1.4 29.5
20:40 1011 29.85 840 24.81 1.7 35.1 80 -1.3 29.6
20:45 1011 29.85 840 24.81 1.6 34.8 81 -1.3 29.6
20:50 1011 29.85 840 24.81 1.5 34.7 81 -1.3 29.6
20:55 1011 29.85 840 24.81 1.4 34.6 82 -1.3 29.7
21:00 1011 29.85 840 24.81 1.5 34.6 82 -1.3 29.6
21:05 1011 29.85 840 24.81 1.4 34.6 81 -1.5 29.4
21:10 1011 29.85 840 24.81 1.5 34.6 81 -1.4 29.5
21:15 1011 29.85 840 24.81 1.5 34.7 81 -1.4 29.5
21:20 1011 29.85 840 24.81 1.6 34.9 80 -1.5 29.2
21:25 1011 29.85 840 24.81 1.6 34.9 79 -1.7 29
21:30 1011 29.85 840 24.81 1.6 34.9 78 -1.9 28.7
21:35 1011 29.85 840 24.81 1.7 35.1 77 -1.9 28.6
21:40 1011 29.85 840 24.81 1.7 35 78 -1.8 28.8
21:45 1011 29.85 840 24.81 1.6 34.9 78 -1.7 28.9
21:50 1011 29.85 840 24.81 1.6 34.9 79 -1.6 29.1
21:55 1011 29.85 840 24.81 1.6 34.9 79 -1.6 29.1
22:00 1011 29.85 840 24.81 1.5 34.7 80 -1.6 29.2
22:05 1011 29.85 840 24.81 1.6 34.9 79 -1.6 29.1
22:10 1011 29.85 840 24.81 1.8 35.2 79 -1.5 29.3
22:15 1011 29.85 840 24.81 1.8 35.2 79 -1.5 29.3
22:20 1011 29.85 840 24.81 1.9 35.5 79 -1.4 29.4
22:25 1011 29.85 840 24.81 2 35.6 78 -1.5 29.3
22:30 1011 29.85 840 24.81 2.1 35.8 76 -1.6 29.1
22:35 1011 29.85 840 24.81 2.2 36 72 -2.2 28
22:40 1011 29.85 840 24.81 2.5 36.5 69 -2.7 27.1
22:45 1011 29.85 840 24.81 2.9 37.1 68 -2.5 27.4
22:50 1011 29.85 840 24.81 2.8 37 72 -1.7 28.9
22:55 1011 29.85 840 24.81 2.4 36.4 74 -1.7 29
23:00 1011 29.85 840 24.81 2.1 35.7 75 -1.9 28.7
23:05 1011 29.85 840 24.81 2 35.7 78 -1.4 29.5
23:10 1011 29.85 840 24.81 1.9 35.4 78 -1.5 29.3
23:15 1011 29.85 840 24.81 1.9 35.4 76 -1.9 28.6
23:20 1011 29.85 840 24.81 2.1 35.7 76 -1.7 28.9
23:25 1011 29.85 840 24.81 2.2 35.9 69 -2.9 26.8
23:30 1011 29.85 840 24.81 2.3 36.2 73 -1.9 28.5
23:35 1011 29.85 840 24.81 2.5 36.6 72 -1.9 28.6
23:40 1011 29.85 840 24.81 2.7 36.8 72 -1.8 28.7
23:45 1011 29.85 840 24.81 2.7 36.9 75 -1.2 29.8
23:50 1011 29.85 840 24.81 2.5 36.6 80 -0.7 30.8
23:55 1011 29.85 840 24.81 2 35.7 83 -0.5 31.1
24:00 1011 29.85 840 24.81 1.8 35.2 83 -0.8 30.6